createdAt,value
2023-01-09T00:01:56.514Z,3.27
2023-01-09T00:03:58.499Z,3.37
2023-01-09T00:06:00.247Z,3.40
2023-01-09T00:08:02.629Z,3.45
2023-01-09T00:10:05.686Z,3.31
2023-01-09T00:12:07.576Z,3.40
2023-01-09T00:14:10.980Z,3.47
2023-01-09T00:16:13.186Z,3.36
2023-01-09T00:18:15.084Z,3.36
2023-01-09T00:20:17.167Z,3.36
2023-01-09T00:22:20.127Z,3.39
2023-01-09T00:24:21.850Z,3.30
2023-01-09T00:26:23.589Z,3.40
2023-01-09T00:28:25.744Z,3.38
2023-01-09T00:30:27.777Z,3.34
2023-01-09T00:32:29.640Z,3.35
2023-01-09T00:34:31.487Z,3.39
2023-01-09T00:36:33.435Z,3.36
2023-01-09T00:38:35.190Z,3.21
2023-01-09T00:40:36.947Z,3.33
2023-01-09T00:42:38.846Z,3.37
2023-01-09T00:44:46.424Z,3.36
2023-01-09T00:46:52.117Z,3.35
2023-01-09T00:48:53.978Z,3.34
2023-01-09T00:50:58.970Z,3.44
2023-01-09T00:53:15.801Z,3.16
2023-01-09T00:55:18.053Z,3.31
2023-01-09T00:57:19.788Z,3.27
2023-01-09T00:59:21.787Z,3.43
2023-01-09T01:01:23.886Z,3.08
2023-01-09T01:03:26.429Z,3.32
2023-01-09T01:05:28.195Z,3.06
2023-01-09T01:07:29.911Z,3.14
2023-01-09T01:09:31.724Z,3.24
2023-01-09T01:11:33.937Z,3.11
2023-01-09T01:13:36.755Z,3.21
2023-01-09T01:15:40.191Z,3.31
2023-01-09T01:17:43.386Z,3.24
2023-01-09T01:19:45.352Z,3.18
2023-01-09T01:21:47.037Z,3.20
2023-01-09T01:23:48.968Z,3.41
2023-01-09T01:25:50.743Z,3.29
2023-01-09T01:27:52.741Z,3.23
2023-01-09T01:29:54.616Z,3.21
2023-01-09T01:31:56.665Z,3.33
2023-01-09T01:33:58.374Z,3.41
2023-01-09T01:36:08.686Z,3.31
2023-01-09T01:38:10.427Z,3.10
2023-01-09T01:40:12.730Z,3.20
2023-01-09T01:42:15.154Z,3.29
2023-01-09T01:44:54.083Z,3.37
2023-01-09T01:46:56.879Z,3.25
2023-01-09T01:49:13.244Z,3.19
2023-01-09T01:51:17.245Z,3.43
2023-01-09T01:53:23.943Z,3.41
2023-01-09T01:55:26.208Z,3.39
2023-01-09T01:57:27.997Z,2.96
2023-01-09T01:59:38.736Z,3.24
2023-01-09T02:01:44.624Z,3.14
2023-01-09T02:03:46.468Z,3.35
2023-01-09T02:05:49.182Z,3.23
2023-01-09T02:07:51.159Z,3.03
2023-01-09T02:09:54.090Z,3.14
2023-01-09T02:11:57.890Z,3.04
2023-01-09T02:14:01.259Z,3.18
2023-01-09T02:16:24.225Z,3.31
2023-01-09T02:18:39.790Z,3.38
2023-01-09T02:20:48.284Z,3.31
2023-01-09T02:23:15.896Z,3.32
2023-01-09T02:26:06.729Z,3.32
2023-01-09T02:28:32.997Z,3.30
2023-01-09T02:31:05.464Z,3.32
2023-01-09T02:33:29.817Z,3.35
2023-01-09T02:35:37.236Z,3.29
2023-01-09T02:37:42.004Z,3.31
2023-01-09T02:40:05.272Z,3.10
2023-01-09T02:42:23.689Z,3.04
2023-01-09T02:44:28.490Z,3.01
2023-01-09T02:46:30.282Z,2.95
2023-01-09T02:48:32.557Z,2.97
2023-01-09T02:50:48.032Z,2.74
2023-01-09T02:53:23.283Z,2.99
2023-01-09T02:55:32.419Z,2.72
2023-01-09T02:57:48.896Z,2.70
2023-01-09T03:00:17.125Z,2.83
2023-01-09T03:02:45.617Z,2.85
2023-01-09T03:05:06.116Z,2.94
2023-01-09T03:07:24.155Z,2.90
2023-01-09T03:09:29.467Z,2.79
2023-01-09T03:11:39.391Z,2.77
2023-01-09T03:13:51.813Z,2.84
2023-01-09T03:15:55.106Z,2.94
2023-01-09T03:17:57.739Z,2.82
2023-01-09T03:20:02.747Z,2.91
2023-01-09T03:22:04.872Z,2.80
2023-01-09T03:24:06.736Z,2.97
2023-01-09T03:26:11.425Z,2.75
2023-01-09T03:28:30.968Z,3.08
2023-01-09T03:30:34.621Z,3.09
2023-01-09T03:32:36.255Z,2.96
2023-01-09T03:34:38.109Z,2.69
2023-01-09T03:36:39.833Z,2.94
2023-01-09T03:38:41.613Z,2.86
2023-01-09T03:40:43.503Z,2.57
2023-01-09T03:42:45.244Z,2.97
2023-01-09T03:44:46.927Z,2.72
2023-01-09T03:46:48.776Z,2.89
2023-01-09T03:48:50.537Z,2.91
2023-01-09T03:50:54.033Z,2.97
2023-01-09T03:52:56.016Z,3.02
2023-01-09T03:54:57.714Z,3.01
2023-01-09T03:56:59.551Z,2.83
2023-01-09T03:59:01.280Z,2.97
2023-01-09T04:01:05.991Z,2.95
2023-01-09T04:03:09.696Z,2.99
2023-01-09T04:05:11.303Z,3.06
2023-01-09T04:07:12.996Z,3.02
2023-01-09T04:09:14.846Z,3.07
2023-01-09T04:11:16.924Z,2.98
2023-01-09T04:13:19.057Z,3.00
2023-01-09T04:15:20.881Z,3.08
2023-01-09T04:17:22.651Z,3.09
2023-01-09T04:19:24.346Z,3.06
2023-01-09T04:21:26.297Z,2.74
2023-01-09T04:23:28.208Z,3.16
2023-01-09T04:25:30.315Z,3.10
2023-01-09T04:27:32.235Z,3.00
2023-01-09T04:29:33.966Z,3.05
2023-01-09T04:31:36.443Z,3.18
2023-01-09T04:33:38.235Z,3.16
2023-01-09T04:35:40.270Z,3.26
2023-01-09T04:37:42.172Z,3.24
2023-01-09T04:40:03.414Z,3.24
2023-01-09T04:42:05.251Z,3.28
2023-01-09T04:44:06.987Z,3.41
2023-01-09T04:46:08.912Z,3.25
2023-01-09T04:48:11.123Z,3.31
2023-01-09T04:50:12.990Z,3.23
2023-01-09T04:52:14.837Z,3.39
2023-01-09T04:54:16.673Z,3.28
2023-01-09T04:56:18.419Z,3.28
2023-01-09T04:58:20.390Z,3.47
2023-01-09T05:00:22.340Z,3.29
2023-01-09T05:02:24.074Z,3.13
2023-01-09T05:04:26.185Z,3.24
2023-01-09T05:06:28.127Z,3.23
2023-01-09T05:08:29.902Z,3.01
2023-01-09T05:10:31.708Z,3.26
2023-01-09T05:12:33.563Z,3.15
2023-01-09T05:14:35.227Z,3.18
2023-01-09T05:16:37.176Z,3.18
2023-01-09T05:18:38.877Z,3.04
2023-01-09T05:20:40.547Z,3.00
2023-01-09T05:22:42.383Z,3.11
2023-01-09T05:24:44.060Z,3.19
2023-01-09T05:26:45.751Z,3.20
2023-01-09T05:28:47.613Z,3.23
2023-01-09T05:30:49.340Z,2.99
2023-01-09T05:32:51.018Z,3.08
2023-01-09T05:34:52.888Z,3.26
2023-01-09T05:36:57.640Z,3.23
2023-01-09T05:38:59.411Z,3.21
2023-01-09T05:41:01.180Z,3.22
2023-01-09T05:43:02.973Z,3.36
2023-01-09T05:45:06.104Z,3.17
2023-01-09T05:47:07.893Z,3.31
2023-01-09T05:49:09.817Z,3.36
2023-01-09T05:51:12.627Z,3.44
2023-01-09T05:53:14.496Z,3.28
2023-01-09T05:55:16.382Z,3.41
2023-01-09T05:57:18.134Z,3.44
2023-01-09T05:59:19.976Z,3.40
2023-01-09T06:01:23.667Z,3.37
2023-01-09T06:03:25.700Z,3.31
2023-01-09T06:05:27.587Z,3.46
2023-01-09T06:07:29.449Z,3.47
2023-01-09T06:09:31.389Z,3.38
2023-01-09T06:11:33.407Z,3.38
2023-01-09T06:13:35.086Z,3.25
2023-01-09T06:15:36.801Z,3.30
2023-01-09T06:17:38.585Z,3.27
2023-01-09T06:19:40.301Z,3.09
2023-01-09T06:21:42.207Z,3.20
2023-01-09T06:23:44.094Z,3.33
2023-01-09T06:25:45.785Z,3.24
2023-01-09T06:27:47.625Z,3.23
2023-01-09T06:29:49.578Z,3.31
2023-01-09T06:31:51.258Z,3.34
2023-01-09T06:33:53.432Z,3.28
2023-01-09T06:35:55.182Z,3.31
2023-01-09T06:37:57.072Z,3.20
2023-01-09T06:39:59.232Z,3.29
2023-01-09T06:42:01.238Z,3.34
2023-01-09T06:44:02.914Z,3.39
2023-01-09T06:46:05.010Z,3.38
2023-01-09T06:48:07.139Z,3.38
2023-01-09T06:50:09.584Z,3.33
2023-01-09T06:52:11.437Z,3.33
2023-01-09T06:54:13.230Z,3.26
2023-01-09T06:56:14.909Z,3.30
2023-01-09T06:58:16.973Z,3.28
2023-01-09T07:00:19.153Z,2.95
2023-01-09T07:02:22.148Z,3.21
2023-01-09T07:04:24.053Z,3.20
2023-01-09T07:06:25.775Z,2.78
2023-01-09T07:08:27.436Z,3.34
2023-01-09T07:10:29.372Z,3.26
2023-01-09T07:12:31.055Z,3.16
2023-01-09T07:14:32.849Z,3.23
2023-01-09T07:16:34.556Z,3.21
2023-01-09T07:18:36.252Z,3.22
2023-01-09T07:20:39.836Z,3.05
2023-01-09T07:22:41.484Z,3.21
2023-01-09T07:24:43.361Z,3.16
2023-01-09T07:26:45.100Z,3.22
2023-01-09T07:28:46.955Z,3.16
2023-01-09T07:30:48.929Z,3.23
2023-01-09T07:32:50.592Z,3.33
2023-01-09T07:34:52.258Z,3.35
2023-01-09T07:36:54.342Z,3.16
2023-01-09T07:38:56.014Z,3.20
2023-01-09T07:40:57.669Z,3.33
2023-01-09T07:42:59.705Z,3.34
2023-01-09T07:45:01.401Z,3.32
2023-01-09T07:47:03.127Z,3.46
2023-01-09T07:49:05.481Z,3.36
2023-01-09T07:51:07.201Z,3.41
2023-01-09T07:53:08.925Z,3.36
2023-01-09T07:55:10.830Z,3.33
2023-01-09T07:57:12.592Z,3.33
2023-01-09T07:59:14.366Z,3.35
2023-01-09T08:01:16.717Z,3.49
2023-01-09T08:03:18.515Z,3.52
2023-01-09T08:05:21.094Z,3.50
2023-01-09T08:07:22.832Z,3.56
2023-01-09T08:09:24.608Z,3.64
2023-01-09T08:11:26.665Z,3.49
2023-01-09T08:13:28.676Z,3.55
2023-01-09T08:15:30.419Z,3.52
2023-01-09T08:17:32.117Z,3.46
2023-01-09T08:19:34.030Z,3.52
2023-01-09T08:21:35.741Z,3.58
2023-01-09T08:23:38.026Z,3.42
2023-01-09T08:25:40.315Z,3.66
2023-01-09T08:27:42.050Z,3.46
2023-01-09T08:29:43.758Z,3.71
2023-01-09T08:31:45.680Z,3.70
2023-01-09T08:33:47.425Z,3.72
2023-01-09T08:35:49.212Z,3.80
2023-01-09T08:37:51.097Z,3.84
2023-01-09T08:39:52.939Z,3.84
2023-01-09T08:41:54.623Z,3.73
2023-01-09T08:43:56.693Z,3.82
2023-01-09T08:45:59.275Z,3.84
2023-01-09T08:48:01.058Z,3.79
2023-01-09T08:50:02.873Z,3.89
2023-01-09T08:52:05.734Z,3.95
2023-01-09T08:54:07.396Z,3.96
2023-01-09T08:56:09.439Z,4.08
2023-01-09T08:58:11.244Z,4.06
2023-01-09T09:00:13.623Z,4.04
2023-01-09T09:02:15.765Z,4.14
2023-01-09T09:04:17.502Z,4.10
2023-01-09T09:06:19.178Z,4.10
2023-01-09T09:08:21.200Z,3.93
2023-01-09T09:10:24.777Z,4.18
2023-01-09T09:12:26.450Z,4.18
2023-01-09T09:14:28.416Z,4.24
2023-01-09T09:16:30.123Z,4.26
2023-01-09T09:18:31.883Z,3.97
2023-01-09T09:20:39.012Z,4.20
2023-01-09T09:22:40.797Z,4.17
2023-01-09T09:24:42.705Z,4.13
2023-01-09T09:26:44.825Z,4.24
2023-01-09T09:28:46.612Z,4.33
2023-01-09T09:30:48.318Z,4.37
2023-01-09T09:32:50.435Z,4.52
2023-01-09T09:34:52.170Z,4.34
2023-01-09T09:36:53.858Z,4.19
2023-01-09T09:38:55.992Z,4.52
2023-01-09T09:41:16.518Z,4.56
2023-01-09T09:43:33.310Z,4.54
2023-01-09T09:45:41.335Z,4.50
2023-01-09T09:48:07.659Z,4.67
2023-01-09T09:50:28.900Z,4.56
2023-01-09T09:52:56.359Z,4.45
2023-01-09T09:55:02.666Z,4.56
2023-01-09T09:57:05.390Z,4.27
2023-01-09T09:59:16.114Z,4.57
2023-01-09T10:01:33.360Z,4.47
2023-01-09T10:04:00.848Z,4.56
2023-01-09T10:06:31.047Z,4.72
2023-01-09T10:09:14.262Z,4.61
2023-01-09T10:11:24.892Z,4.51
2023-01-09T10:13:26.876Z,4.49
2023-01-09T10:15:46.391Z,4.56
2023-01-09T10:18:07.699Z,4.49
2023-01-09T10:20:37.298Z,4.55
2023-01-09T10:22:51.929Z,4.57
2023-01-09T10:25:02.779Z,4.62
2023-01-09T10:27:18.128Z,4.50
2023-01-09T10:29:22.655Z,4.52
2023-01-09T10:31:51.682Z,4.60
2023-01-09T10:34:22.514Z,4.60
2023-01-09T10:36:53.099Z,4.63
2023-01-09T10:38:58.823Z,4.54
2023-01-09T10:41:07.008Z,4.62
2023-01-09T10:43:34.730Z,4.70
2023-01-09T10:45:42.457Z,4.70
2023-01-09T10:47:45.283Z,4.68
2023-01-09T10:49:49.859Z,4.50
2023-01-09T10:52:05.324Z,4.60
2023-01-09T10:54:13.660Z,4.72
2023-01-09T10:56:26.463Z,4.79
2023-01-09T10:58:28.209Z,4.86
2023-01-09T11:00:30.172Z,4.74
2023-01-09T11:02:35.545Z,4.73
2023-01-09T11:04:39.644Z,4.91
2023-01-09T11:06:48.034Z,4.96
2023-01-09T11:08:55.625Z,4.84
2023-01-09T11:11:00.366Z,4.91
2023-01-09T11:13:27.258Z,4.93
2023-01-09T11:15:29.193Z,4.77
2023-01-09T11:17:30.954Z,4.97
2023-01-09T11:19:32.752Z,5.02
2023-01-09T11:21:39.201Z,4.97
2023-01-09T11:23:40.944Z,5.05
2023-01-09T11:25:53.097Z,5.09
2023-01-09T11:28:03.972Z,5.14
2023-01-09T11:30:15.668Z,5.24
2023-01-09T11:32:26.399Z,5.24
2023-01-09T11:34:31.918Z,5.14
2023-01-09T11:36:33.784Z,4.94
2023-01-09T11:38:51.106Z,5.17
2023-01-09T11:40:56.808Z,4.97
2023-01-09T11:43:13.629Z,5.20
2023-01-09T11:45:21.632Z,5.20
2023-01-09T11:47:40.615Z,5.17
2023-01-09T11:49:42.306Z,5.06
2023-01-09T11:51:44.657Z,5.17
2023-01-09T11:54:14.182Z,5.25
2023-01-09T11:56:17.707Z,5.15
2023-01-09T11:58:21.410Z,5.04
2023-01-09T12:00:28.380Z,5.13
2023-01-09T12:02:47.486Z,5.06
2023-01-09T12:05:24.381Z,5.09
2023-01-09T12:07:55.911Z,5.07
2023-01-09T12:10:19.767Z,5.17
2023-01-09T12:12:44.729Z,5.13
2023-01-09T12:15:09.961Z,5.12
2023-01-09T12:17:14.411Z,5.06
2023-01-09T12:19:38.009Z,4.97
2023-01-09T12:21:58.668Z,5.12
2023-01-09T12:24:17.909Z,5.22
2023-01-09T12:26:24.625Z,5.19
2023-01-09T12:28:29.747Z,5.19
2023-01-09T12:30:45.359Z,5.25
2023-01-09T12:33:02.565Z,5.35
2023-01-09T12:35:21.244Z,5.23
2023-01-09T12:38:07.976Z,5.30
2023-01-09T12:40:15.826Z,5.31
2023-01-09T12:42:34.225Z,5.23
2023-01-09T12:44:49.586Z,5.35
2023-01-09T12:47:31.480Z,5.29
2023-01-09T12:49:37.833Z,5.36
2023-01-09T12:51:39.519Z,5.35
2023-01-09T12:53:51.326Z,5.30
2023-01-09T12:56:04.011Z,5.40
2023-01-09T12:58:28.237Z,5.48
2023-01-09T13:00:40.671Z,5.42
2023-01-09T13:03:07.229Z,5.30
2023-01-09T13:05:28.802Z,5.26
2023-01-09T13:07:38.177Z,5.33
2023-01-09T13:10:04.883Z,5.33
2023-01-09T13:12:19.490Z,5.30
2023-01-09T13:14:36.609Z,5.23
2023-01-09T13:16:45.003Z,5.06
2023-01-09T13:19:06.264Z,5.26
2023-01-09T13:21:09.441Z,5.31
2023-01-09T13:23:33.282Z,5.45
2023-01-09T13:25:40.960Z,5.33
2023-01-09T13:27:49.201Z,5.41
2023-01-09T13:30:06.949Z,5.43
2023-01-09T13:32:33.490Z,5.55
2023-01-09T13:34:37.240Z,5.50
2023-01-09T13:36:45.950Z,5.50
2023-01-09T13:38:49.983Z,5.36
2023-01-09T13:41:21.477Z,5.62
2023-01-09T13:43:23.151Z,5.74
2023-01-09T13:45:28.150Z,5.59
2023-01-09T13:47:29.937Z,5.71
2023-01-09T13:49:37.239Z,5.84
2023-01-09T13:51:41.907Z,5.87
2023-01-09T13:53:45.775Z,5.98
2023-01-09T13:55:59.595Z,5.98
2023-01-09T13:58:04.541Z,6.00
2023-01-09T14:00:12.385Z,5.88
2023-01-09T14:02:32.732Z,5.89
2023-01-09T14:04:41.657Z,5.70
2023-01-09T14:07:15.272Z,5.76
2023-01-09T14:09:22.745Z,5.67
2023-01-09T14:11:25.138Z,5.86
2023-01-09T14:13:49.139Z,5.75
2023-01-09T14:15:52.949Z,5.70
2023-01-09T14:18:07.407Z,5.76
2023-01-09T14:20:30.681Z,5.63
2023-01-09T14:22:45.464Z,5.77
2023-01-09T14:25:04.470Z,5.88
2023-01-09T14:27:44.447Z,5.95
2023-01-09T14:29:46.362Z,5.97
2023-01-09T14:31:48.430Z,5.98
2023-01-09T14:33:50.398Z,6.07
2023-01-09T14:36:17.088Z,5.87
2023-01-09T14:38:43.721Z,5.96
2023-01-09T14:40:54.480Z,6.03
2023-01-09T14:43:01.270Z,6.07
2023-01-09T14:45:06.574Z,6.11
2023-01-09T14:47:37.375Z,6.03
2023-01-09T14:49:45.537Z,6.23
2023-01-09T14:51:49.841Z,6.25
2023-01-09T14:53:53.508Z,6.04
2023-01-09T14:55:55.055Z,6.23
2023-01-09T14:58:10.706Z,6.39
2023-01-09T15:00:12.458Z,6.18
2023-01-09T15:02:14.454Z,6.25
2023-01-09T15:04:33.555Z,6.43
2023-01-09T15:06:41.317Z,6.59
2023-01-09T15:08:46.591Z,6.18
2023-01-09T15:10:50.744Z,6.38
2023-01-09T15:12:55.898Z,6.27
2023-01-09T15:15:01.440Z,6.19
2023-01-09T15:17:04.469Z,6.33
2023-01-09T15:19:08.755Z,6.36
2023-01-09T15:21:20.158Z,6.42
2023-01-09T15:23:24.849Z,6.49
2023-01-09T15:25:38.587Z,6.58
2023-01-09T15:27:48.593Z,6.61
2023-01-09T15:29:52.071Z,6.54
2023-01-09T15:32:06.751Z,6.48
2023-01-09T15:34:22.743Z,6.51
2023-01-09T15:36:28.419Z,6.57
2023-01-09T15:38:32.809Z,6.53
2023-01-09T15:40:34.805Z,6.47
2023-01-09T15:42:40.197Z,6.55
2023-01-09T15:44:45.548Z,6.61
2023-01-09T15:46:48.932Z,6.61
2023-01-09T15:48:54.294Z,6.62
2023-01-09T15:51:01.549Z,6.63
2023-01-09T15:53:03.307Z,6.59
2023-01-09T15:55:36.735Z,6.54
2023-01-09T15:57:38.558Z,6.56
2023-01-09T15:59:40.243Z,6.60
2023-01-09T16:01:42.221Z,6.63
2023-01-09T16:03:44.024Z,6.54
2023-01-09T16:05:52.077Z,6.54
2023-01-09T16:07:53.858Z,6.67
2023-01-09T16:10:04.847Z,6.72
2023-01-09T16:12:06.883Z,6.54
2023-01-09T16:14:21.312Z,6.62
2023-01-09T16:16:32.705Z,6.73
2023-01-09T16:18:37.459Z,6.65
2023-01-09T16:20:39.562Z,6.80
2023-01-09T16:22:55.967Z,6.60
2023-01-09T16:25:03.047Z,6.76
2023-01-09T16:27:32.133Z,6.67
2023-01-09T16:29:38.663Z,6.63
2023-01-09T16:31:40.463Z,6.54
2023-01-09T16:33:48.139Z,6.54
2023-01-09T16:35:50.981Z,6.44
2023-01-09T16:37:52.649Z,6.60
2023-01-09T16:40:16.337Z,6.58
2023-01-09T16:42:18.090Z,6.36
2023-01-09T16:44:19.959Z,6.56
2023-01-09T16:46:22.270Z,6.58
2023-01-09T16:48:24.045Z,6.52
2023-01-09T16:50:26.119Z,6.34
2023-01-09T16:52:29.569Z,6.44
2023-01-09T16:54:31.251Z,6.39
2023-01-09T16:56:33.233Z,6.37
2023-01-09T16:58:36.370Z,6.16
2023-01-09T17:00:38.128Z,6.03
2023-01-09T17:02:39.865Z,5.96
2023-01-09T17:04:41.730Z,5.97
2023-01-09T17:06:44.852Z,5.84
2023-01-09T17:08:46.613Z,5.83
2023-01-09T17:10:50.024Z,5.85
2023-01-09T17:12:51.798Z,5.88
2023-01-09T17:14:53.715Z,5.92
2023-01-09T17:16:55.663Z,5.98
2023-01-09T17:18:57.399Z,5.88
2023-01-09T17:20:59.065Z,5.90
2023-01-09T17:23:00.847Z,5.71
2023-01-09T17:25:02.565Z,5.93
2023-01-09T17:27:04.327Z,5.83
2023-01-09T17:29:06.677Z,5.71
2023-01-09T17:31:11.920Z,5.84
2023-01-09T17:33:18.318Z,5.85
2023-01-09T17:35:20.239Z,5.92
2023-01-09T17:37:22.091Z,5.88
2023-01-09T17:39:23.876Z,5.84
2023-01-09T17:41:30.803Z,5.81
2023-01-09T17:43:32.559Z,5.83
2023-01-09T17:45:34.325Z,5.83
2023-01-09T17:47:36.559Z,5.85
2023-01-09T17:49:38.249Z,5.80
2023-01-09T17:51:39.930Z,5.76
2023-01-09T17:53:42.027Z,5.79
2023-01-09T17:55:43.904Z,5.77
2023-01-09T17:57:45.610Z,5.64
2023-01-09T17:59:47.444Z,5.69
2023-01-09T18:01:49.179Z,5.71
2023-01-09T18:03:50.950Z,5.82
2023-01-09T18:05:53.438Z,5.78
2023-01-09T18:07:55.175Z,5.76
2023-01-09T18:09:57.401Z,5.87
2023-01-09T18:11:59.284Z,5.92
2023-01-09T18:14:01.071Z,5.91
2023-01-09T18:16:02.825Z,5.84
2023-01-09T18:18:05.224Z,5.88
2023-01-09T18:20:07.731Z,6.06
2023-01-09T18:22:09.486Z,5.97
2023-01-09T18:24:11.323Z,5.93
2023-01-09T18:26:13.826Z,5.98
2023-01-09T18:28:16.268Z,5.97
2023-01-09T18:30:18.276Z,6.08
2023-01-09T18:32:19.950Z,6.19
2023-01-09T18:34:21.695Z,6.36
2023-01-09T18:36:28.628Z,6.33
2023-01-09T18:38:30.375Z,6.16
2023-01-09T18:40:32.197Z,6.30
2023-01-09T18:42:34.023Z,6.33
2023-01-09T18:44:37.274Z,6.14
2023-01-09T18:46:39.402Z,6.16
2023-01-09T18:48:41.236Z,5.92
2023-01-09T18:50:42.980Z,5.84
2023-01-09T18:52:44.650Z,6.01
2023-01-09T18:54:46.855Z,5.86
2023-01-09T18:56:48.708Z,5.85
2023-01-09T18:58:55.042Z,5.76
2023-01-09T19:00:56.926Z,5.74
2023-01-09T19:02:58.653Z,5.77
2023-01-09T19:05:00.330Z,5.65
2023-01-09T19:07:02.199Z,5.85
2023-01-09T19:09:04.205Z,5.76
2023-01-09T19:11:06.211Z,5.54
2023-01-09T19:13:07.936Z,5.68
2023-01-09T19:15:10.120Z,5.88
2023-01-09T19:17:11.841Z,5.76
2023-01-09T19:19:13.962Z,5.78
2023-01-09T19:21:20.762Z,5.75
2023-01-09T19:23:23.219Z,5.82
2023-01-09T19:25:25.064Z,5.76
2023-01-09T19:27:29.452Z,5.70
2023-01-09T19:29:31.141Z,5.57
2023-01-09T19:31:34.607Z,5.72
2023-01-09T19:33:37.492Z,5.68
2023-01-09T19:35:39.516Z,5.58
2023-01-09T19:37:41.302Z,5.55
2023-01-09T19:39:42.958Z,5.49
2023-01-09T19:41:44.746Z,5.65
2023-01-09T19:43:47.537Z,5.53
2023-01-09T19:45:49.320Z,5.52
2023-01-09T19:47:51.285Z,5.70
2023-01-09T19:49:52.982Z,5.56
2023-01-09T19:51:54.826Z,5.63
2023-01-09T19:53:58.214Z,5.64
2023-01-09T19:56:17.706Z,5.64
2023-01-09T19:58:19.429Z,5.66
2023-01-09T20:00:21.153Z,5.62
2023-01-09T20:02:22.956Z,5.55
2023-01-09T20:04:24.924Z,5.58
2023-01-09T20:06:26.590Z,5.58
2023-01-09T20:08:28.264Z,5.60
2023-01-09T20:10:29.998Z,5.64
2023-01-09T20:12:32.348Z,5.47
2023-01-09T20:14:34.144Z,5.65
2023-01-09T20:16:35.964Z,5.59
2023-01-09T20:18:37.680Z,5.43
2023-01-09T20:22:40.971Z,5.61
2023-01-09T20:24:42.673Z,5.36
2023-01-09T20:26:44.780Z,5.38
2023-01-09T20:28:47.410Z,5.44
2023-01-09T20:30:51.399Z,5.48
2023-01-09T20:32:53.070Z,5.48
2023-01-09T20:34:55.462Z,5.58
2023-01-09T20:36:57.245Z,5.70
2023-01-09T20:39:02.128Z,5.51
2023-01-09T20:41:08.901Z,5.51
2023-01-09T20:43:14.939Z,5.56
2023-01-09T20:45:16.790Z,5.54
2023-01-09T20:47:18.671Z,5.65
2023-01-09T20:49:20.896Z,5.66
2023-01-09T20:51:22.863Z,5.74
2023-01-09T20:53:24.725Z,5.61
2023-01-09T20:55:26.429Z,5.57
2023-01-09T20:57:29.349Z,5.59
2023-01-09T20:59:31.208Z,5.65
2023-01-09T21:01:33.007Z,5.57
2023-01-09T21:03:34.803Z,5.64
2023-01-09T21:05:40.546Z,5.56
2023-01-09T21:07:42.279Z,5.64
2023-01-09T21:09:43.978Z,5.55
2023-01-09T21:11:45.719Z,5.60
2023-01-09T21:13:47.456Z,5.43
2023-01-09T21:15:49.325Z,5.58
2023-01-09T21:17:51.036Z,5.58
2023-01-09T21:19:52.723Z,5.61
2023-01-09T21:21:54.456Z,5.57
2023-01-09T21:23:58.383Z,5.54
2023-01-09T21:26:00.517Z,5.47
2023-01-09T21:28:02.796Z,5.55
2023-01-09T21:30:06.532Z,5.60
2023-01-09T21:32:08.334Z,5.69
2023-01-09T21:34:11.845Z,5.67
2023-01-09T21:36:14.489Z,5.62
2023-01-09T21:38:16.215Z,5.52
2023-01-09T21:40:18.003Z,5.66
2023-01-09T21:42:19.959Z,5.65
2023-01-09T21:44:21.659Z,5.69
2023-01-09T21:46:23.445Z,5.72
2023-01-09T21:48:25.289Z,5.77
2023-01-09T21:50:28.093Z,5.72
2023-01-09T21:52:29.807Z,5.78
2023-01-09T21:54:32.887Z,5.62
2023-01-09T21:56:34.828Z,5.86
2023-01-09T21:58:36.551Z,5.77
2023-01-09T22:00:38.290Z,5.78
2023-01-09T22:02:40.127Z,5.76
2023-01-09T22:04:43.423Z,5.74
2023-01-09T22:06:45.321Z,5.85
2023-01-09T22:08:47.023Z,5.85
2023-01-09T22:10:55.549Z,5.90
2023-01-09T22:12:57.219Z,5.92
2023-01-09T22:15:04.019Z,6.04
2023-01-09T22:17:05.790Z,5.89
2023-01-09T22:19:07.570Z,5.86
2023-01-09T22:21:09.379Z,5.88
2023-01-09T22:23:11.459Z,5.77
2023-01-09T22:25:13.348Z,5.91
2023-01-09T22:27:15.167Z,5.87
2023-01-09T22:29:16.854Z,5.96
2023-01-09T22:31:22.521Z,6.01
2023-01-09T22:33:25.303Z,5.89
2023-01-09T22:35:27.215Z,5.98
2023-01-09T22:37:29.006Z,5.89
2023-01-09T22:39:30.675Z,5.99
2023-01-09T22:41:32.420Z,5.99
2023-01-09T22:43:34.124Z,6.02
2023-01-09T22:45:35.834Z,5.99
2023-01-09T22:47:37.605Z,5.99
2023-01-09T22:49:52.268Z,6.03
2023-01-09T22:51:54.259Z,5.87
2023-01-09T22:53:56.003Z,5.88
2023-01-09T22:55:59.259Z,5.91
2023-01-09T22:58:00.975Z,5.89
2023-01-09T23:00:03.049Z,5.84
2023-01-09T23:02:04.983Z,5.97
2023-01-09T23:04:06.771Z,6.06
2023-01-09T23:06:12.684Z,6.09
2023-01-09T23:08:15.045Z,5.99
2023-01-09T23:10:16.884Z,5.93
2023-01-09T23:12:19.713Z,5.98
2023-01-09T23:14:22.036Z,5.93
2023-01-09T23:16:23.833Z,6.01
2023-01-09T23:18:25.864Z,6.04
2023-01-09T23:20:27.601Z,5.99
2023-01-09T23:22:29.325Z,6.00
2023-01-09T23:24:32.843Z,5.77
2023-01-09T23:26:38.261Z,5.97
2023-01-09T23:28:40.372Z,5.94
2023-01-09T23:30:42.159Z,5.97
2023-01-09T23:32:44.066Z,5.65
2023-01-09T23:34:45.814Z,5.81
2023-01-09T23:36:47.689Z,6.02
2023-01-09T23:38:49.734Z,5.88
2023-01-09T23:40:56.128Z,6.00
2023-01-09T23:42:57.869Z,5.96
2023-01-09T23:44:59.583Z,6.01
2023-01-09T23:47:01.265Z,6.02
2023-01-09T23:49:02.997Z,6.03
2023-01-09T23:51:04.859Z,6.00
2023-01-09T23:53:06.539Z,5.94
2023-01-09T23:55:08.474Z,5.97
2023-01-09T23:57:10.287Z,5.91
2023-01-09T23:59:13.060Z,5.90
